createdAt,value
2023-04-15T00:01:08.399Z,99527.25
2023-04-15T00:03:35.793Z,99527.25
2023-04-15T00:06:03.884Z,99526.41
2023-04-15T00:08:31.280Z,99523.88
2023-04-15T00:11:03.163Z,99527.38
2023-04-15T00:13:30.376Z,99527.31
2023-04-15T00:15:57.634Z,99523.91
2023-04-15T00:18:25.089Z,99527.38
2023-04-15T00:20:52.760Z,99515.41
2023-04-15T00:23:19.812Z,99525.69
2023-04-15T00:25:47.474Z,99522.28
2023-04-15T00:28:14.644Z,99520.63
2023-04-15T00:30:42.890Z,99522.34
2023-04-15T00:33:10.184Z,99518.09
2023-04-15T00:35:38.807Z,99520.63
2023-04-15T00:38:08.252Z,99515.59
2023-04-15T00:40:35.768Z,99514.63
2023-04-15T00:43:03.107Z,99520.69
2023-04-15T00:45:30.662Z,99510.41
2023-04-15T00:47:58.803Z,99504.41
2023-04-15T00:50:25.894Z,99514.75
2023-04-15T00:52:53.179Z,99514.75
2023-04-15T00:55:20.491Z,99507.91
2023-04-15T00:57:47.690Z,99503.56
2023-04-15T01:00:15.060Z,99508.72
2023-04-15T01:02:42.327Z,99510.34
2023-04-15T01:05:09.731Z,99506.94
2023-04-15T01:07:37.013Z,99510.34
2023-04-15T01:10:04.974Z,99505.16
2023-04-15T01:12:33.348Z,99495.66
2023-04-15T01:15:00.986Z,99499.16
2023-04-15T01:17:28.490Z,99500.00
2023-04-15T01:19:58.206Z,99506.91
2023-04-15T01:22:26.920Z,99505.19
2023-04-15T01:25:18.662Z,99498.41
2023-04-15T01:27:45.807Z,99508.59
2023-04-15T01:30:13.048Z,99507.69
2023-04-15T01:32:40.179Z,99501.84
2023-04-15T01:35:07.983Z,99508.66
2023-04-15T01:37:35.231Z,99505.25
2023-04-15T01:40:02.461Z,99509.66
2023-04-15T01:42:29.606Z,99503.66
2023-04-15T01:44:56.643Z,99509.72
2023-04-15T01:47:23.756Z,99511.47
2023-04-15T01:49:51.116Z,99503.75
2023-04-15T01:52:18.642Z,99510.66
2023-04-15T01:54:45.965Z,99512.34
2023-04-15T01:57:13.148Z,99514.94
2023-04-15T01:59:40.377Z,99508.16
2023-04-15T02:02:07.486Z,99516.75
2023-04-15T02:04:34.585Z,99515.81
2023-04-15T02:07:01.836Z,99509.78
2023-04-15T02:09:29.455Z,99510.66
2023-04-15T02:11:56.649Z,99514.91
2023-04-15T02:14:24.343Z,99510.59
2023-04-15T02:16:51.771Z,99511.44
2023-04-15T02:19:18.895Z,99515.72
2023-04-15T02:21:45.931Z,99512.31
2023-04-15T02:24:13.076Z,99508.88
2023-04-15T02:26:41.666Z,99508.00
2023-04-15T02:29:08.798Z,99508.88
2023-04-15T02:31:40.786Z,99508.94
2023-04-15T02:34:08.406Z,99514.09
2023-04-15T02:36:35.478Z,99502.13
2023-04-15T02:39:03.377Z,99508.94
2023-04-15T02:41:30.823Z,99510.66
2023-04-15T02:43:58.684Z,99496.97
2023-04-15T02:46:27.649Z,99508.09
2023-04-15T02:48:54.786Z,99515.81
2023-04-15T02:51:23.624Z,99514.09
2023-04-15T02:53:51.088Z,99512.41
2023-04-15T02:56:19.664Z,99508.88
2023-04-15T02:58:47.271Z,99509.75
2023-04-15T03:01:14.922Z,99508.88
2023-04-15T03:03:42.442Z,99500.31
2023-04-15T03:06:09.693Z,99498.53
2023-04-15T03:08:37.350Z,99510.59
2023-04-15T03:11:05.153Z,99506.28
2023-04-15T03:13:33.822Z,99514.03
2023-04-15T03:16:08.683Z,99510.59
2023-04-15T03:18:36.247Z,99512.41
2023-04-15T03:21:04.008Z,99515.75
2023-04-15T03:23:34.747Z,99510.59
2023-04-15T03:26:03.198Z,99517.47
2023-04-15T03:28:32.963Z,99507.16
2023-04-15T03:31:01.272Z,99513.25
2023-04-15T03:33:28.567Z,99524.38
2023-04-15T03:35:55.887Z,99522.59
2023-04-15T03:38:22.928Z,99514.88
2023-04-15T03:40:49.996Z,99517.41
2023-04-15T03:43:17.288Z,99525.22
2023-04-15T03:45:44.396Z,99524.31
2023-04-15T03:48:17.630Z,99523.41
2023-04-15T03:50:46.442Z,99526.00
2023-04-15T03:53:13.583Z,99517.47
2023-04-15T03:55:40.647Z,99532.00
2023-04-15T03:58:07.924Z,99527.69
2023-04-15T04:00:34.959Z,99529.47
2023-04-15T04:03:02.262Z,99531.28
2023-04-15T04:05:29.502Z,99536.50
2023-04-15T04:07:56.754Z,99532.25
2023-04-15T04:10:23.781Z,99538.25
2023-04-15T04:12:50.826Z,99534.78
2023-04-15T04:15:17.982Z,99544.34
2023-04-15T04:17:45.235Z,99533.22
2023-04-15T04:20:12.608Z,99539.31
2023-04-15T04:22:40.761Z,99540.22
2023-04-15T04:25:09.082Z,99539.41
2023-04-15T04:27:36.638Z,99542.09
2023-04-15T04:30:04.325Z,99532.66
2023-04-15T04:32:31.671Z,99537.78
2023-04-15T04:34:58.742Z,99532.78
2023-04-15T04:37:25.927Z,99543.84
2023-04-15T04:39:53.004Z,99542.16
2023-04-15T04:42:19.991Z,99542.16
2023-04-15T04:44:47.423Z,99542.16
2023-04-15T04:47:14.646Z,99538.69
2023-04-15T04:49:41.796Z,99543.06
2023-04-15T04:52:08.927Z,99538.72
2023-04-15T04:54:36.090Z,99540.53
2023-04-15T04:57:03.301Z,99544.88
2023-04-15T04:59:30.361Z,99550.03
2023-04-15T05:01:57.684Z,99538.03
2023-04-15T05:04:24.699Z,99550.03
2023-04-15T05:06:51.989Z,99554.34
2023-04-15T05:09:19.470Z,99553.47
2023-04-15T05:11:46.532Z,99555.09
2023-04-15T05:14:13.601Z,99552.47
2023-04-15T05:16:40.662Z,99547.31
2023-04-15T05:19:08.148Z,99555.88
2023-04-15T05:21:36.632Z,99557.59
2023-04-15T05:24:05.687Z,99560.16
2023-04-15T05:26:32.824Z,99555.94
2023-04-15T05:29:00.107Z,99561.03
2023-04-15T05:31:27.574Z,99559.34
2023-04-15T05:33:54.667Z,99557.66
2023-04-15T05:36:21.824Z,99554.22
2023-04-15T05:38:48.822Z,99552.50
2023-04-15T05:41:18.478Z,99540.59
2023-04-15T05:43:46.742Z,99558.56
2023-04-15T05:46:13.798Z,99559.41
2023-04-15T05:48:41.185Z,99553.38
2023-04-15T05:51:08.426Z,99555.13
2023-04-15T05:53:36.072Z,99559.34
2023-04-15T05:56:03.219Z,99561.03
2023-04-15T05:58:30.270Z,99561.03
2023-04-15T06:00:57.435Z,99554.28
2023-04-15T06:03:24.804Z,99559.47
2023-04-15T06:05:52.009Z,99569.78
2023-04-15T06:08:19.476Z,99562.91
2023-04-15T06:10:46.593Z,99571.59
2023-04-15T06:13:13.782Z,99569.94
2023-04-15T06:15:41.434Z,99573.34
2023-04-15T06:18:08.512Z,99576.78
2023-04-15T06:20:35.640Z,99575.03
2023-04-15T06:23:02.663Z,99572.38
2023-04-15T06:25:29.883Z,99575.75
2023-04-15T06:27:56.938Z,99578.41
2023-04-15T06:30:24.558Z,99580.19
2023-04-15T06:32:51.922Z,99575.88
2023-04-15T06:35:19.262Z,99580.19
2023-04-15T06:37:46.541Z,99578.47
2023-04-15T06:40:14.037Z,99584.53
2023-04-15T06:42:42.090Z,99588.84
2023-04-15T06:45:09.748Z,99577.75
2023-04-15T06:47:37.027Z,99587.19
2023-04-15T06:50:04.554Z,99593.13
2023-04-15T06:52:31.946Z,99592.34
2023-04-15T06:54:59.828Z,99600.84
2023-04-15T06:57:26.924Z,99599.13
2023-04-15T06:59:54.818Z,99597.44
2023-04-15T07:02:22.404Z,99604.28
2023-04-15T07:04:49.581Z,99606.88
2023-04-15T07:07:17.709Z,99611.19
2023-04-15T07:09:45.349Z,99599.97
2023-04-15T07:12:12.451Z,99604.28
2023-04-15T07:14:39.612Z,99593.09
2023-04-15T07:17:07.122Z,99614.56
2023-04-15T07:19:34.237Z,99602.66
2023-04-15T07:22:01.394Z,99610.34
2023-04-15T07:24:28.612Z,99617.94
2023-04-15T07:26:59.460Z,99614.44
2023-04-15T07:29:27.839Z,99622.97
2023-04-15T07:31:54.969Z,99618.72
2023-04-15T07:34:22.113Z,99618.75
2023-04-15T07:36:52.252Z,99615.41
2023-04-15T07:39:19.402Z,99624.81
2023-04-15T07:41:46.830Z,99623.88
2023-04-15T07:44:14.003Z,99626.41
2023-04-15T07:46:41.435Z,99626.47
2023-04-15T07:49:08.885Z,99634.19
2023-04-15T07:51:36.082Z,99624.72
2023-04-15T07:54:03.460Z,99631.50
2023-04-15T07:56:30.789Z,99626.38
2023-04-15T07:58:58.014Z,99631.44
2023-04-15T08:01:25.155Z,99636.63
2023-04-15T08:03:52.880Z,99636.63
2023-04-15T08:06:20.213Z,99631.50
2023-04-15T08:08:47.851Z,99639.25
2023-04-15T08:11:15.026Z,99641.84
2023-04-15T08:13:42.084Z,99634.09
2023-04-15T08:16:30.426Z,99640.16
2023-04-15T08:18:58.126Z,99650.44
2023-04-15T08:21:25.991Z,99643.56
2023-04-15T08:23:53.955Z,99641.78
2023-04-15T08:26:21.832Z,99647.78
2023-04-15T08:28:49.887Z,99651.22
2023-04-15T08:31:18.490Z,99647.72
2023-04-15T08:33:46.526Z,99657.22
2023-04-15T08:36:14.252Z,99652.91
2023-04-15T08:38:42.025Z,99652.03
2023-04-15T08:41:26.408Z,99654.59
2023-04-15T08:43:58.993Z,99663.16
2023-04-15T08:46:26.965Z,99665.81
2023-04-15T08:48:57.814Z,99662.31
2023-04-15T08:51:25.721Z,99659.81
2023-04-15T08:53:53.222Z,99665.69
2023-04-15T08:56:29.238Z,99672.59
2023-04-15T08:58:57.270Z,99669.13
2023-04-15T09:01:25.081Z,99667.41
2023-04-15T09:03:54.965Z,99669.13
2023-04-15T09:06:23.404Z,99660.50
2023-04-15T09:08:52.121Z,99666.56
2023-04-15T09:11:20.337Z,99663.00
2023-04-15T09:13:47.723Z,99669.91
2023-04-15T09:16:14.888Z,99675.88
2023-04-15T09:18:42.086Z,99672.44
2023-04-15T09:21:11.533Z,99661.97
2023-04-15T09:23:54.455Z,99669.66
2023-04-15T09:26:34.171Z,99658.44
2023-04-15T09:29:07.029Z,99667.06
2023-04-15T09:31:34.305Z,99667.00
2023-04-15T09:34:02.151Z,99667.06
2023-04-15T09:36:30.150Z,99665.31
2023-04-15T09:38:59.320Z,99669.59
2023-04-15T09:41:27.570Z,99666.16
2023-04-15T09:43:54.728Z,99672.19
2023-04-15T09:46:41.556Z,99661.06
2023-04-15T09:49:09.652Z,99674.00
2023-04-15T09:51:36.842Z,99662.81
2023-04-15T09:54:04.813Z,99672.19
2023-04-15T09:56:41.668Z,99673.88
2023-04-15T09:59:09.205Z,99673.88
2023-04-15T10:01:37.414Z,99672.19
2023-04-15T10:04:06.288Z,99677.25
2023-04-15T10:06:35.006Z,99678.91
2023-04-15T10:09:02.156Z,99666.88
2023-04-15T10:11:31.579Z,99682.31
2023-04-15T10:13:59.093Z,99681.50
2023-04-15T10:16:31.198Z,99680.66
2023-04-15T10:19:01.674Z,99682.47
2023-04-15T10:21:28.952Z,99688.47
2023-04-15T10:23:57.510Z,99685.75
2023-04-15T10:26:25.495Z,99680.59
2023-04-15T10:28:53.817Z,99681.47
2023-04-15T10:31:21.812Z,99692.75
2023-04-15T10:33:50.029Z,99685.94
2023-04-15T10:36:20.180Z,99679.06
2023-04-15T10:38:47.457Z,99686.84
2023-04-15T10:41:28.103Z,99684.28
2023-04-15T10:43:57.045Z,99693.72
2023-04-15T10:46:39.459Z,99692.03
2023-04-15T10:49:13.847Z,99693.72
2023-04-15T10:51:43.016Z,99696.28
2023-04-15T10:54:30.312Z,99694.63
2023-04-15T10:57:06.814Z,99694.69
2023-04-15T10:59:38.052Z,99705.03
2023-04-15T11:02:07.130Z,99696.44
2023-04-15T11:04:57.730Z,99695.59
2023-04-15T11:07:47.110Z,99704.16
2023-04-15T11:10:14.209Z,99698.94
2023-04-15T11:12:42.153Z,99704.91
2023-04-15T11:15:34.404Z,99702.25
2023-04-15T11:18:17.456Z,99704.81
2023-04-15T11:20:46.900Z,99703.94
2023-04-15T11:23:16.191Z,99704.75
2023-04-15T11:25:44.244Z,99701.28
2023-04-15T11:28:13.262Z,99704.75
2023-04-15T11:30:42.867Z,99711.63
2023-04-15T11:33:14.913Z,99718.56
2023-04-15T11:35:43.267Z,99701.41
2023-04-15T11:38:14.725Z,99712.47
2023-04-15T11:40:45.279Z,99713.28
2023-04-15T11:43:23.726Z,99712.41
2023-04-15T11:45:56.611Z,99714.16
2023-04-15T11:48:34.728Z,99718.47
2023-04-15T11:51:08.281Z,99712.41
2023-04-15T11:53:48.888Z,99717.56
2023-04-15T11:56:21.683Z,99721.91
2023-04-15T11:58:52.285Z,99727.09
2023-04-15T12:01:19.667Z,99733.13
2023-04-15T12:03:48.582Z,99727.09
2023-04-15T12:06:23.721Z,99725.41
2023-04-15T12:09:14.207Z,99727.91
2023-04-15T12:11:48.516Z,99737.38
2023-04-15T12:14:28.753Z,99738.19
2023-04-15T12:17:00.443Z,99728.75
2023-04-15T12:19:39.628Z,99730.31
2023-04-15T12:22:10.569Z,99735.56
2023-04-15T12:24:38.743Z,99742.47
2023-04-15T12:27:11.524Z,99744.22
2023-04-15T12:29:41.003Z,99735.75
2023-04-15T12:32:09.357Z,99744.22
2023-04-15T12:34:38.887Z,99750.16
2023-04-15T12:37:09.727Z,99745.81
2023-04-15T12:39:42.972Z,99748.28
2023-04-15T12:42:10.628Z,99742.16
2023-04-15T12:44:40.319Z,99750.59
2023-04-15T12:47:09.306Z,99746.19
2023-04-15T12:49:36.603Z,99744.44
2023-04-15T12:52:04.498Z,99752.16
2023-04-15T12:54:32.462Z,99750.38
2023-04-15T12:57:00.213Z,99752.16
2023-04-15T12:59:27.513Z,99756.63
2023-04-15T13:01:54.792Z,99755.78
2023-04-15T13:04:22.561Z,99746.53
2023-04-15T13:06:50.037Z,99761.16
2023-04-15T13:09:17.265Z,99751.72
2023-04-15T13:11:44.477Z,99768.09
2023-04-15T13:14:14.657Z,99766.31
2023-04-15T13:16:41.814Z,99765.50
2023-04-15T13:19:08.872Z,99766.34
2023-04-15T13:21:36.530Z,99760.44
2023-04-15T13:24:05.264Z,99766.38
2023-04-15T13:26:33.042Z,99771.50
2023-04-15T13:29:00.201Z,99774.91
2023-04-15T13:31:27.562Z,99775.69
2023-04-15T13:33:54.937Z,99772.19
2023-04-15T13:36:22.023Z,99769.63
2023-04-15T13:38:51.178Z,99774.78
2023-04-15T13:41:18.872Z,99773.88
2023-04-15T13:43:46.507Z,99779.84
2023-04-15T13:46:13.788Z,99769.41
2023-04-15T13:48:41.137Z,99771.09
2023-04-15T13:51:08.202Z,99772.84
2023-04-15T13:53:38.228Z,99777.19
2023-04-15T13:56:08.122Z,99772.91
2023-04-15T13:58:36.612Z,99776.41
2023-04-15T14:01:05.691Z,99776.47
2023-04-15T14:03:34.935Z,99769.63
2023-04-15T14:06:02.382Z,99776.56
2023-04-15T14:08:30.985Z,99773.03
2023-04-15T14:10:58.153Z,99781.63
2023-04-15T14:13:25.447Z,99780.69
2023-04-15T14:15:52.668Z,99783.25
2023-04-15T14:18:19.774Z,99786.81
2023-04-15T14:20:46.863Z,99778.22
2023-04-15T14:23:14.042Z,99789.41
2023-04-15T14:25:41.218Z,99793.69
2023-04-15T14:28:08.392Z,99783.38
2023-04-15T14:30:35.946Z,99785.94
2023-04-15T14:33:03.963Z,99790.19
2023-04-15T14:35:31.548Z,99786.63
2023-04-15T14:37:58.828Z,99793.50
2023-04-15T14:40:26.019Z,99796.13
2023-04-15T14:42:53.106Z,99790.13
2023-04-15T14:45:20.221Z,99795.44
2023-04-15T14:47:47.570Z,99803.25
2023-04-15T14:50:14.765Z,99803.31
2023-04-15T14:52:41.848Z,99801.56
2023-04-15T14:55:13.441Z,99804.16
2023-04-15T14:57:42.723Z,99805.84
2023-04-15T15:00:13.171Z,99802.38
2023-04-15T15:02:43.615Z,99811.84
2023-04-15T15:05:12.342Z,99803.25
2023-04-15T15:07:41.225Z,99808.38
2023-04-15T15:10:08.662Z,99810.91
2023-04-15T15:12:36.446Z,99807.53
2023-04-15T15:15:12.367Z,99814.44
2023-04-15T15:17:43.333Z,99816.19
2023-04-15T15:20:10.972Z,99830.88
2023-04-15T15:22:38.104Z,99831.72
2023-04-15T15:25:05.915Z,99836.06
2023-04-15T15:27:33.209Z,99829.16
2023-04-15T15:30:00.352Z,99830.94
2023-04-15T15:32:27.533Z,99831.66
2023-04-15T15:34:54.650Z,99829.91
2023-04-15T15:37:21.752Z,99835.09
2023-04-15T15:39:50.910Z,99840.25
2023-04-15T15:42:19.790Z,99848.94
2023-04-15T15:44:49.405Z,99840.38
2023-04-15T15:47:17.209Z,99843.91
2023-04-15T15:49:44.967Z,99846.47
2023-04-15T15:52:12.393Z,99847.38
2023-04-15T15:54:42.544Z,99852.56
2023-04-15T15:57:10.505Z,99854.25
2023-04-15T15:59:41.775Z,99850.81
2023-04-15T16:02:12.735Z,99859.47
2023-04-15T16:04:40.378Z,99856.06
2023-04-15T16:07:07.619Z,99852.66
2023-04-15T16:09:34.932Z,99857.78
2023-04-15T16:12:03.464Z,99863.00
2023-04-15T16:14:30.725Z,99854.31
2023-04-15T16:16:58.380Z,99856.97
2023-04-15T16:19:25.586Z,99849.19
2023-04-15T16:21:52.822Z,99864.66
2023-04-15T16:24:20.120Z,99864.66
2023-04-15T16:26:47.466Z,99868.16
2023-04-15T16:29:14.587Z,99876.75
2023-04-15T16:31:41.827Z,99870.72
2023-04-15T16:34:09.161Z,99864.75
2023-04-15T16:36:36.506Z,99868.97
2023-04-15T16:39:04.474Z,99867.19
2023-04-15T16:41:34.325Z,99871.50
2023-04-15T16:44:02.209Z,99865.50
2023-04-15T16:46:29.925Z,99876.63
2023-04-15T16:48:58.506Z,99888.66
2023-04-15T16:51:26.095Z,99889.56
2023-04-15T16:53:53.457Z,99892.16
2023-04-15T16:56:21.802Z,99888.66
2023-04-15T16:58:48.895Z,99896.44
2023-04-15T17:01:16.495Z,99894.75
2023-04-15T17:03:44.057Z,99908.63
2023-04-15T17:06:11.307Z,99909.53
2023-04-15T17:08:38.437Z,99909.66
2023-04-15T17:11:05.708Z,99918.25
2023-04-15T17:13:32.827Z,99917.41
2023-04-15T17:16:00.022Z,99920.00
2023-04-15T17:18:27.151Z,99932.09
2023-04-15T17:20:56.085Z,99925.19
2023-04-15T17:23:23.131Z,99936.38
2023-04-15T17:25:51.748Z,99933.00
2023-04-15T17:28:19.290Z,99932.16
2023-04-15T17:30:46.570Z,99927.94
2023-04-15T17:34:00.362Z,99941.69
2023-04-15T17:36:01.135Z,99932.25
2023-04-15T17:38:28.301Z,99939.19
2023-04-15T17:40:55.585Z,99949.56
2023-04-15T17:43:22.664Z,99946.19
2023-04-15T17:45:50.445Z,99957.38
2023-04-15T17:48:17.675Z,99949.66
2023-04-15T17:50:44.824Z,99958.31
2023-04-15T17:53:12.031Z,99961.75
2023-04-15T17:55:39.116Z,99956.59
2023-04-15T17:58:06.446Z,99962.66
2023-04-15T18:00:33.633Z,99972.16
2023-04-15T18:03:01.147Z,99970.50
2023-04-15T18:05:28.381Z,99977.41
2023-04-15T18:07:55.666Z,99974.94
2023-04-15T18:10:22.884Z,99987.81
2023-04-15T18:12:49.947Z,99986.06
2023-04-15T18:15:17.653Z,99987.84
2023-04-15T18:17:44.846Z,99999.84
2023-04-15T18:20:12.983Z,100005.03
2023-04-15T18:22:40.409Z,99998.19
2023-04-15T18:25:08.015Z,100010.19
2023-04-15T18:27:36.037Z,100014.56
2023-04-15T18:30:03.367Z,100009.38
2023-04-15T18:32:33.060Z,100019.69
2023-04-15T18:35:00.604Z,100020.53
2023-04-15T18:37:29.599Z,100019.66
2023-04-15T18:39:57.117Z,100019.63
2023-04-15T18:42:25.455Z,100019.59
2023-04-15T18:44:53.992Z,100028.25
2023-04-15T18:47:21.375Z,100027.41
2023-04-15T18:49:48.575Z,100030.84
2023-04-15T18:52:15.742Z,100032.56
2023-04-15T18:54:42.909Z,100028.28
2023-04-15T18:57:10.326Z,100029.13
2023-04-15T18:59:37.699Z,100034.28
2023-04-15T19:02:07.589Z,100029.13
2023-04-15T19:04:35.196Z,100036.00
2023-04-15T19:07:02.471Z,100032.56
2023-04-15T19:09:29.905Z,100036.03
2023-04-15T19:11:57.851Z,100036.91
2023-04-15T19:14:25.009Z,100046.38
2023-04-15T19:16:52.260Z,100044.66
2023-04-15T19:19:19.576Z,100041.22
2023-04-15T19:21:49.998Z,100046.34
2023-04-15T19:24:18.377Z,100061.88
2023-04-15T19:26:50.048Z,100053.25
2023-04-15T19:29:17.834Z,100063.69
2023-04-15T19:31:45.385Z,100063.69
2023-04-15T19:34:12.481Z,100060.25
2023-04-15T19:36:39.706Z,100067.16
2023-04-15T19:39:07.054Z,100065.41
2023-04-15T19:41:34.286Z,100069.69
2023-04-15T19:44:01.434Z,100066.25
2023-04-15T19:46:28.717Z,100068.81
2023-04-15T19:48:56.078Z,100074.84
2023-04-15T19:51:23.324Z,100080.88
2023-04-15T19:53:51.155Z,100074.91
2023-04-15T19:56:18.264Z,100072.31
2023-04-15T19:58:47.106Z,100075.81
2023-04-15T20:01:14.294Z,100077.50
2023-04-15T20:03:41.801Z,100091.28
2023-04-15T20:06:09.045Z,100093.88
2023-04-15T20:08:36.184Z,100093.88
2023-04-15T20:11:03.448Z,100082.72
2023-04-15T20:13:31.210Z,100095.63
2023-04-15T20:15:58.386Z,100101.66
2023-04-15T20:18:25.532Z,100095.69
2023-04-15T20:20:52.644Z,100094.88
2023-04-15T20:23:19.797Z,100106.03
2023-04-15T20:25:47.046Z,100106.88
2023-04-15T20:28:14.090Z,100112.94
2023-04-15T20:30:41.470Z,100111.22
2023-04-15T20:33:09.156Z,100122.41
2023-04-15T20:35:36.373Z,100115.50
2023-04-15T20:38:04.601Z,100116.38
2023-04-15T20:40:33.868Z,100125.88
2023-04-15T20:43:01.076Z,100129.31
2023-04-15T20:45:28.410Z,100127.66
2023-04-15T20:47:56.284Z,100132.84
2023-04-15T20:50:23.445Z,100129.41
2023-04-15T20:52:50.777Z,100131.06
2023-04-15T20:55:17.838Z,100132.78
2023-04-15T20:57:44.949Z,100127.66
2023-04-15T21:00:12.503Z,100139.69
2023-04-15T21:02:39.779Z,100138.84
2023-04-15T21:05:07.375Z,100145.75
2023-04-15T21:07:34.583Z,100146.59
2023-04-15T21:10:01.853Z,100146.63
2023-04-15T21:12:28.946Z,100138.00
2023-04-15T21:14:56.192Z,100150.06
2023-04-15T21:17:23.306Z,100154.34
2023-04-15T21:19:50.414Z,100153.50
2023-04-15T21:22:17.665Z,100150.13
2023-04-15T21:24:44.777Z,100154.44
2023-04-15T21:27:11.959Z,100147.56
2023-04-15T21:29:40.567Z,100159.59
2023-04-15T21:32:07.861Z,100163.91
2023-04-15T21:34:35.062Z,100169.06
2023-04-15T21:37:02.442Z,100171.66
2023-04-15T21:39:29.623Z,100172.50
2023-04-15T21:41:58.122Z,100175.09
2023-04-15T21:44:25.518Z,100180.28
2023-04-15T21:46:52.725Z,100182.03
2023-04-15T21:49:20.643Z,100179.38
2023-04-15T21:51:48.253Z,100184.56
2023-04-15T21:54:16.224Z,100186.25
2023-04-15T21:56:43.436Z,100184.53
2023-04-15T21:59:10.579Z,100186.25
2023-04-15T22:01:37.851Z,100186.25
2023-04-15T22:04:07.557Z,100196.59
2023-04-15T22:06:34.860Z,100191.47
2023-04-15T22:09:01.918Z,100190.59
2023-04-15T22:11:30.646Z,100196.59
2023-04-15T22:13:58.892Z,100200.03
2023-04-15T22:16:26.978Z,100202.63
2023-04-15T22:18:55.007Z,100199.22
2023-04-15T22:21:22.307Z,100201.81
2023-04-15T22:23:50.091Z,100210.38
2023-04-15T22:26:17.289Z,100203.50
2023-04-15T22:28:44.447Z,100203.53
2023-04-15T22:31:11.690Z,100213.03
2023-04-15T22:33:39.206Z,100217.34
2023-04-15T22:36:06.541Z,100222.50
2023-04-15T22:38:33.756Z,100205.34
2023-04-15T22:41:01.000Z,100220.81
2023-04-15T22:43:28.099Z,100219.13
2023-04-15T22:45:55.411Z,100215.69
2023-04-15T22:48:23.207Z,100224.28
2023-04-15T22:50:50.456Z,100226.00
2023-04-15T22:53:18.005Z,100226.00
2023-04-15T22:55:46.980Z,100229.44
2023-04-15T22:58:15.312Z,100226.84
2023-04-15T23:00:42.431Z,100232.84
2023-04-15T23:03:09.878Z,100226.78
2023-04-15T23:05:37.326Z,100232.78
2023-04-15T23:08:04.407Z,100222.44
2023-04-15T23:10:31.523Z,100239.63
2023-04-15T23:12:58.646Z,100233.63
2023-04-15T23:15:25.733Z,100229.38
2023-04-15T23:17:52.928Z,100231.06
2023-04-15T23:20:20.050Z,100236.22
2023-04-15T23:22:47.116Z,100241.38
2023-04-15T23:25:14.262Z,100235.38
2023-04-15T23:27:41.365Z,100238.81
2023-04-15T23:30:08.801Z,100234.50
2023-04-15T23:32:36.118Z,100229.31
2023-04-15T23:35:03.329Z,100236.22
2023-04-15T23:37:31.592Z,100236.22
2023-04-15T23:39:58.664Z,100235.38
2023-04-15T23:42:26.206Z,100231.06
2023-04-15T23:44:53.316Z,100238.84
2023-04-15T23:47:20.448Z,100247.50
2023-04-15T23:49:47.520Z,100244.94
2023-04-15T23:52:14.782Z,100240.66
2023-04-15T23:54:41.854Z,100242.34
2023-04-15T23:57:09.035Z,100242.38
2023-04-15T23:59:36.317Z,100250.13
